AV - LB | Pilotos de la V.A




 METAR AND TAF INFORMATION
METAR FOR LTFJ
ADDS - METARS form results

(0244 UTC 19 May 2021)
Data provider http://aviationweather.gov/metar/data/
 
METAR text: LTFJ 190220Z 27006KT CAVOK 14/11 Q1014 NOSIG RMK RWY24 26006KT
Conditions at: LTFJ (SABIHA GOKCEN , TR) observed 0220 UTC 19 May 2021
Temperature: 14.0°C (57°F)
Dewpoint: 11.0°C (52°F) [RH = 82%]
Pressure (altimeter): 29.94 inches Hg (1014.0 mb)
Winds: from the W (270 degrees) at 7 MPH (6 knots; 3.1 m/s)
Visibility: 6 or more miles (10+ km)
Ceiling: ceiling and visibility are OK
Clouds: unknown
Weather: no significant weather observed at this time

METAR text: LTFJ 190150Z 27005KT CAVOK 14/11 Q1014 NOSIG RMK RWY24 26004KT
Conditions at: LTFJ (SABIHA GOKCEN , TR) observed 0150 UTC 19 May 2021
Temperature: 14.0°C (57°F)
Dewpoint: 11.0°C (52°F) [RH = 82%]
Pressure (altimeter): 29.94 inches Hg (1014.0 mb)
Winds: from the W (270 degrees) at 6 MPH (5 knots; 2.6 m/s)
Visibility: 6 or more miles (10+ km)
Ceiling: ceiling and visibility are OK
Clouds: unknown
Weather: no significant weather observed at this time

Forecast for: LTFJ (SABIHA GOKCEN , TR)
Text: TAF LTFJ 182240Z 1900/1924 VRB02KT CAVOK
Forecast period: 0000 UTC 19 May 2021 to 0000 UTC 20 May 2021
Forecast type: FROM: standard forecast or significant change
Winds: variable direction winds at 2 MPH (2 knots; 1.0 m/s)
Visibility: 6 or more miles (10+ km)
Ceiling: unknown
Clouds: missing
Weather: NSW  (no significant weather)
Text: PROB30
Forecast period: 0300 to 0600 UTC 19 May 2021
Forecast type: TEMPORARY: The following changes expected for less than half the time period
Visibility: 2.49 miles (4.01 km)
Ceiling: at least 12,000 feet AGL
Clouds: few clouds at 1000 feet AGL
Weather: BR  (mist)
Text: TEMPO 1903/1906 4000 BR FEW010
Forecast period: 0800 to 1100 UTC 19 May 2021
Forecast type: TEMPORARY: The following changes expected for less than half the time period
Winds: from the WSW (240 degrees) at 14 MPH (12 knots; 6.2 m/s)
Visibility: missing
Ceiling: unknown
Clouds: missing
Weather: no significant weather forecast for this period

 AIRPORT MAP

 RUNWAY INFORMATION
Runway 06 Runway length 9843 ft Runway width 148 ft
Runway elevation 293 ft Runway displaced threshold 0 ft Runway heading 64
Runway 24 Runway length 9843 ft Runway width 148 ft
Runway elevation 304 ft Runway displaced threshold 0 ft Runway heading 244

 AIRPORT FREQUENCIES
Type ATIS Name ATIS Frequency 128.55 MHZ
Type GND Name GND Frequency 121.75 MHZ
Type TWR Name TWR Frequency 37.877 MHZ
Type TWR Name TWR Frequency 118.8 MHZ

 AIRPORT NEAR NAVIGATION AIDS
Type NDB Name Sabiha Gokcen Frequency 347 KHZ
Type VOR-DME Name Sabiha Gokcen Frequency 108800 KHZ